sensor_id;sensor_type;location;lat;lon;timestamp;P1;durP1;ratioP1;P2;durP2;ratioP2
61903;SDS011;47857;52.270;6.804;2023-09-19T00:02:16;7.80;;;1.50;;
61903;SDS011;47857;52.270;6.804;2023-09-19T00:04:44;6.28;;;1.73;;
61903;SDS011;47857;52.270;6.804;2023-09-19T00:07:10;8.35;;;1.92;;
61903;SDS011;47857;52.270;6.804;2023-09-19T00:09:35;9.52;;;2.25;;
61903;SDS011;47857;52.270;6.804;2023-09-19T00:12:04;6.55;;;1.63;;
61903;SDS011;47857;52.270;6.804;2023-09-19T00:14:31;8.30;;;2.13;;
61903;SDS011;47857;52.270;6.804;2023-09-19T00:16:59;7.93;;;1.80;;
61903;SDS011;47857;52.270;6.804;2023-09-19T00:19:26;6.43;;;1.70;;
61903;SDS011;47857;52.270;6.804;2023-09-19T00:21:51;7.38;;;1.73;;
61903;SDS011;47857;52.270;6.804;2023-09-19T00:24:18;8.32;;;1.70;;
61903;SDS011;47857;52.270;6.804;2023-09-19T00:30:37;9.57;;;1.88;;
61903;SDS011;47857;52.270;6.804;2023-09-19T00:33:06;10.73;;;2.03;;
61903;SDS011;47857;52.270;6.804;2023-09-19T00:35:33;10.73;;;2.15;;
61903;SDS011;47857;52.270;6.804;2023-09-19T00:37:58;7.75;;;2.00;;
61903;SDS011;47857;52.270;6.804;2023-09-19T00:40:24;10.57;;;1.95;;
61903;SDS011;47857;52.270;6.804;2023-09-19T00:42:51;9.05;;;2.05;;
61903;SDS011;47857;52.270;6.804;2023-09-19T00:45:18;10.27;;;2.42;;
61903;SDS011;47857;52.270;6.804;2023-09-19T00:47:46;11.15;;;2.03;;
61903;SDS011;47857;52.270;6.804;2023-09-19T00:50:20;6.03;;;1.52;;
61903;SDS011;47857;52.270;6.804;2023-09-19T00:52:48;8.40;;;1.88;;
61903;SDS011;47857;52.270;6.804;2023-09-19T00:55:15;14.13;;;2.00;;
61903;SDS011;47857;52.270;6.804;2023-09-19T00:57:45;8.30;;;1.70;;
61903;SDS011;47857;52.270;6.804;2023-09-19T01:00:11;10.73;;;1.90;;
61903;SDS011;47857;52.270;6.804;2023-09-19T01:02:41;8.35;;;1.80;;
61903;SDS011;47857;52.270;6.804;2023-09-19T01:05:08;8.63;;;1.67;;
61903;SDS011;47857;52.270;6.804;2023-09-19T01:07:35;8.90;;;1.88;;
61903;SDS011;47857;52.270;6.804;2023-09-19T01:10:04;9.57;;;1.58;;
61903;SDS011;47857;52.270;6.804;2023-09-19T01:15:17;8.98;;;1.67;;
61903;SDS011;47857;52.270;6.804;2023-09-19T01:18:08;6.95;;;1.48;;
61903;SDS011;47857;52.270;6.804;2023-09-19T01:23:35;6.68;;;1.50;;
61903;SDS011;47857;52.270;6.804;2023-09-19T01:31:57;12.23;;;1.80;;
61903;SDS011;47857;52.270;6.804;2023-09-19T01:34:26;8.73;;;2.03;;
61903;SDS011;47857;52.270;6.804;2023-09-19T01:36:52;5.38;;;1.55;;
61903;SDS011;47857;52.270;6.804;2023-09-19T01:39:17;9.82;;;2.05;;
61903;SDS011;47857;52.270;6.804;2023-09-19T01:47:27;7.78;;;1.70;;
61903;SDS011;47857;52.270;6.804;2023-09-19T01:53:10;9.15;;;1.95;;
61903;SDS011;47857;52.270;6.804;2023-09-19T01:55:46;9.82;;;1.90;;
61903;SDS011;47857;52.270;6.804;2023-09-19T02:01:19;11.40;;;2.42;;
61903;SDS011;47857;52.270;6.804;2023-09-19T02:03:46;11.65;;;2.30;;
61903;SDS011;47857;52.270;6.804;2023-09-19T02:06:15;11.13;;;2.40;;
61903;SDS011;47857;52.270;6.804;2023-09-19T02:08:42;10.02;;;2.10;;
61903;SDS011;47857;52.270;6.804;2023-09-19T02:11:08;13.02;;;2.30;;
61903;SDS011;47857;52.270;6.804;2023-09-19T02:13:33;9.50;;;2.20;;
61903;SDS011;47857;52.270;6.804;2023-09-19T02:15:59;11.07;;;2.08;;
61903;SDS011;47857;52.270;6.804;2023-09-19T02:18:25;15.10;;;2.38;;
61903;SDS011;47857;52.270;6.804;2023-09-19T02:20:53;10.13;;;1.98;;
61903;SDS011;47857;52.270;6.804;2023-09-19T02:23:19;11.32;;;1.85;;
61903;SDS011;47857;52.270;6.804;2023-09-19T02:25:52;9.50;;;2.10;;
61903;SDS011;47857;52.270;6.804;2023-09-19T02:28:28;9.27;;;1.88;;
61903;SDS011;47857;52.270;6.804;2023-09-19T02:30:57;10.57;;;2.00;;
61903;SDS011;47857;52.270;6.804;2023-09-19T02:33:23;7.82;;;2.00;;
61903;SDS011;47857;52.270;6.804;2023-09-19T02:35:58;10.05;;;2.03;;
61903;SDS011;47857;52.270;6.804;2023-09-19T02:38:27;9.10;;;2.00;;
61903;SDS011;47857;52.270;6.804;2023-09-19T02:40:54;12.50;;;2.42;;
61903;SDS011;47857;52.270;6.804;2023-09-19T02:43:22;12.50;;;2.60;;
61903;SDS011;47857;52.270;6.804;2023-09-19T02:45:48;12.60;;;2.33;;
61903;SDS011;47857;52.270;6.804;2023-09-19T02:48:21;8.95;;;2.00;;
61903;SDS011;47857;52.270;6.804;2023-09-19T02:50:50;16.23;;;2.67;;
61903;SDS011;47857;52.270;6.804;2023-09-19T02:53:17;13.45;;;2.25;;
61903;SDS011;47857;52.270;6.804;2023-09-19T02:55:42;12.00;;;2.28;;
61903;SDS011;47857;52.270;6.804;2023-09-19T02:58:08;12.80;;;2.35;;
61903;SDS011;47857;52.270;6.804;2023-09-19T03:00:36;14.68;;;2.40;;
61903;SDS011;47857;52.270;6.804;2023-09-19T03:03:02;10.70;;;2.35;;
61903;SDS011;47857;52.270;6.804;2023-09-19T03:05:27;13.70;;;2.78;;
61903;SDS011;47857;52.270;6.804;2023-09-19T03:07:56;12.38;;;2.47;;
61903;SDS011;47857;52.270;6.804;2023-09-19T03:10:22;11.65;;;2.83;;
61903;SDS011;47857;52.270;6.804;2023-09-19T03:12:50;14.32;;;2.70;;
61903;SDS011;47857;52.270;6.804;2023-09-19T03:15:17;12.77;;;2.65;;
61903;SDS011;47857;52.270;6.804;2023-09-19T03:17:49;18.40;;;2.72;;
61903;SDS011;47857;52.270;6.804;2023-09-19T03:20:19;11.93;;;2.60;;
61903;SDS011;47857;52.270;6.804;2023-09-19T03:22:47;11.45;;;3.00;;
61903;SDS011;47857;52.270;6.804;2023-09-19T03:25:14;14.85;;;2.78;;
61903;SDS011;47857;52.270;6.804;2023-09-19T03:27:43;12.43;;;2.65;;
61903;SDS011;47857;52.270;6.804;2023-09-19T03:30:09;9.73;;;2.55;;
61903;SDS011;47857;52.270;6.804;2023-09-19T03:32:47;12.68;;;2.35;;
61903;SDS011;47857;52.270;6.804;2023-09-19T03:35:16;10.38;;;2.38;;
61903;SDS011;47857;52.270;6.804;2023-09-19T03:37:42;12.43;;;2.90;;
61903;SDS011;47857;52.270;6.804;2023-09-19T03:40:08;17.42;;;2.70;;
61903;SDS011;47857;52.270;6.804;2023-09-19T03:42:40;14.88;;;2.50;;
61903;SDS011;47857;52.270;6.804;2023-09-19T03:45:08;11.90;;;2.67;;
61903;SDS011;47857;52.270;6.804;2023-09-19T03:47:48;12.65;;;2.72;;
61903;SDS011;47857;52.270;6.804;2023-09-19T03:50:15;11.05;;;2.60;;
61903;SDS011;47857;52.270;6.804;2023-09-19T03:52:45;11.82;;;2.17;;
61903;SDS011;47857;52.270;6.804;2023-09-19T03:55:11;12.85;;;2.65;;
61903;SDS011;47857;52.270;6.804;2023-09-19T03:57:38;9.27;;;2.30;;
61903;SDS011;47857;52.270;6.804;2023-09-19T04:00:04;16.20;;;2.70;;
61903;SDS011;47857;52.270;6.804;2023-09-19T04:02:38;12.77;;;2.80;;
61903;SDS011;47857;52.270;6.804;2023-09-19T04:05:05;11.50;;;2.55;;
61903;SDS011;47857;52.270;6.804;2023-09-19T04:07:30;14.82;;;4.03;;
61903;SDS011;47857;52.270;6.804;2023-09-19T04:09:56;16.88;;;4.28;;
61903;SDS011;47857;52.270;6.804;2023-09-19T04:12:22;15.73;;;4.50;;
61903;SDS011;47857;52.270;6.804;2023-09-19T04:14:47;18.88;;;4.85;;
61903;SDS011;47857;52.270;6.804;2023-09-19T04:17:13;15.55;;;4.72;;
61903;SDS011;47857;52.270;6.804;2023-09-19T04:19:39;19.23;;;5.30;;
61903;SDS011;47857;52.270;6.804;2023-09-19T04:22:06;16.15;;;3.22;;
61903;SDS011;47857;52.270;6.804;2023-09-19T04:24:32;16.15;;;2.90;;
61903;SDS011;47857;52.270;6.804;2023-09-19T04:26:58;13.40;;;2.67;;
61903;SDS011;47857;52.270;6.804;2023-09-19T04:29:24;11.55;;;2.50;;
61903;SDS011;47857;52.270;6.804;2023-09-19T04:31:51;17.95;;;3.28;;
61903;SDS011;47857;52.270;6.804;2023-09-19T04:34:17;11.07;;;2.17;;
61903;SDS011;47857;52.270;6.804;2023-09-19T04:36:43;13.27;;;2.60;;
61903;SDS011;47857;52.270;6.804;2023-09-19T04:39:08;15.18;;;2.50;;
61903;SDS011;47857;52.270;6.804;2023-09-19T04:41:36;12.55;;;2.30;;
61903;SDS011;47857;52.270;6.804;2023-09-19T04:44:04;10.43;;;2.35;;
61903;SDS011;47857;52.270;6.804;2023-09-19T04:46:30;9.75;;;2.40;;
61903;SDS011;47857;52.270;6.804;2023-09-19T04:48:56;14.95;;;2.97;;
61903;SDS011;47857;52.270;6.804;2023-09-19T04:51:21;9.40;;;2.40;;
61903;SDS011;47857;52.270;6.804;2023-09-19T04:53:47;9.25;;;2.50;;
61903;SDS011;47857;52.270;6.804;2023-09-19T04:56:15;11.38;;;2.53;;
61903;SDS011;47857;52.270;6.804;2023-09-19T04:58:41;12.13;;;2.50;;
61903;SDS011;47857;52.270;6.804;2023-09-19T05:01:06;10.90;;;2.17;;
61903;SDS011;47857;52.270;6.804;2023-09-19T05:03:36;16.05;;;2.53;;
61903;SDS011;47857;52.270;6.804;2023-09-19T05:06:02;12.45;;;2.20;;
61903;SDS011;47857;52.270;6.804;2023-09-19T05:08:29;14.20;;;2.78;;
61903;SDS011;47857;52.270;6.804;2023-09-19T05:10:54;19.67;;;2.67;;
61903;SDS011;47857;52.270;6.804;2023-09-19T05:13:21;15.00;;;2.50;;
61903;SDS011;47857;52.270;6.804;2023-09-19T05:15:48;16.13;;;2.55;;
61903;SDS011;47857;52.270;6.804;2023-09-19T05:18:15;16.35;;;2.30;;
61903;SDS011;47857;52.270;6.804;2023-09-19T05:20:41;11.23;;;2.80;;
61903;SDS011;47857;52.270;6.804;2023-09-19T05:23:07;11.25;;;2.47;;
61903;SDS011;47857;52.270;6.804;2023-09-19T05:25:34;14.50;;;2.40;;
61903;SDS011;47857;52.270;6.804;2023-09-19T05:28:04;13.10;;;2.85;;
61903;SDS011;47857;52.270;6.804;2023-09-19T05:30:31;10.77;;;2.42;;
61903;SDS011;47857;52.270;6.804;2023-09-19T05:32:57;12.90;;;2.47;;
61903;SDS011;47857;52.270;6.804;2023-09-19T05:35:23;12.50;;;2.60;;
61903;SDS011;47857;52.270;6.804;2023-09-19T05:37:50;13.43;;;2.45;;
61903;SDS011;47857;52.270;6.804;2023-09-19T05:40:19;10.68;;;2.38;;
61903;SDS011;47857;52.270;6.804;2023-09-19T05:42:45;6.80;;;1.88;;
61903;SDS011;47857;52.270;6.804;2023-09-19T05:45:11;13.93;;;2.30;;
61903;SDS011;47857;52.270;6.804;2023-09-19T05:47:44;7.35;;;2.00;;
61903;SDS011;47857;52.270;6.804;2023-09-19T05:50:11;12.70;;;2.40;;
61903;SDS011;47857;52.270;6.804;2023-09-19T05:52:37;12.82;;;2.20;;
61903;SDS011;47857;52.270;6.804;2023-09-19T05:55:05;11.70;;;2.22;;
61903;SDS011;47857;52.270;6.804;2023-09-19T05:57:35;10.82;;;2.40;;
61903;SDS011;47857;52.270;6.804;2023-09-19T06:00:01;13.45;;;2.67;;
61903;SDS011;47857;52.270;6.804;2023-09-19T06:02:26;12.38;;;2.00;;
61903;SDS011;47857;52.270;6.804;2023-09-19T06:04:54;14.57;;;2.60;;
61903;SDS011;47857;52.270;6.804;2023-09-19T06:07:23;8.65;;;1.77;;
61903;SDS011;47857;52.270;6.804;2023-09-19T06:09:51;9.68;;;2.00;;
61903;SDS011;47857;52.270;6.804;2023-09-19T06:12:18;9.65;;;2.20;;
61903;SDS011;47857;52.270;6.804;2023-09-19T06:14:44;6.70;;;2.00;;
61903;SDS011;47857;52.270;6.804;2023-09-19T06:17:10;9.32;;;2.03;;
61903;SDS011;47857;52.270;6.804;2023-09-19T06:19:35;12.07;;;2.47;;
61903;SDS011;47857;52.270;6.804;2023-09-19T06:22:01;12.07;;;1.90;;
61903;SDS011;47857;52.270;6.804;2023-09-19T06:24:27;15.95;;;2.60;;
61903;SDS011;47857;52.270;6.804;2023-09-19T06:26:53;13.25;;;2.50;;
61903;SDS011;47857;52.270;6.804;2023-09-19T06:29:20;10.27;;;2.20;;
61903;SDS011;47857;52.270;6.804;2023-09-19T06:31:48;12.32;;;2.40;;
61903;SDS011;47857;52.270;6.804;2023-09-19T06:34:13;10.48;;;2.38;;
61903;SDS011;47857;52.270;6.804;2023-09-19T06:36:40;12.75;;;2.15;;
61903;SDS011;47857;52.270;6.804;2023-09-19T06:39:06;11.68;;;2.38;;
61903;SDS011;47857;52.270;6.804;2023-09-19T06:41:36;13.73;;;2.50;;
61903;SDS011;47857;52.270;6.804;2023-09-19T06:44:09;14.38;;;2.60;;
61903;SDS011;47857;52.270;6.804;2023-09-19T06:46:35;11.38;;;2.63;;
61903;SDS011;47857;52.270;6.804;2023-09-19T06:49:04;12.82;;;3.33;;
61903;SDS011;47857;52.270;6.804;2023-09-19T06:51:31;15.15;;;2.40;;
61903;SDS011;47857;52.270;6.804;2023-09-19T06:54:00;9.77;;;2.08;;
61903;SDS011;47857;52.270;6.804;2023-09-19T06:56:26;11.88;;;2.40;;
61903;SDS011;47857;52.270;6.804;2023-09-19T06:58:52;14.60;;;2.67;;
61903;SDS011;47857;52.270;6.804;2023-09-19T07:01:17;11.02;;;2.25;;
61903;SDS011;47857;52.270;6.804;2023-09-19T07:03:43;11.73;;;2.50;;
61903;SDS011;47857;52.270;6.804;2023-09-19T07:06:10;9.23;;;2.10;;
61903;SDS011;47857;52.270;6.804;2023-09-19T07:08:37;11.65;;;2.70;;
61903;SDS011;47857;52.270;6.804;2023-09-19T07:11:03;13.20;;;3.05;;
61903;SDS011;47857;52.270;6.804;2023-09-19T07:13:31;18.45;;;5.75;;
61903;SDS011;47857;52.270;6.804;2023-09-19T07:15:58;15.02;;;3.72;;
61903;SDS011;47857;52.270;6.804;2023-09-19T07:18:24;11.43;;;3.00;;
61903;SDS011;47857;52.270;6.804;2023-09-19T07:20:50;12.93;;;3.38;;
61903;SDS011;47857;52.270;6.804;2023-09-19T07:23:20;13.13;;;3.05;;
61903;SDS011;47857;52.270;6.804;2023-09-19T07:25:48;9.38;;;2.15;;
61903;SDS011;47857;52.270;6.804;2023-09-19T07:28:14;13.82;;;2.33;;
61903;SDS011;47857;52.270;6.804;2023-09-19T07:30:40;9.82;;;2.45;;
61903;SDS011;47857;52.270;6.804;2023-09-19T07:33:06;13.77;;;2.40;;
61903;SDS011;47857;52.270;6.804;2023-09-19T07:35:32;15.50;;;1.95;;
61903;SDS011;47857;52.270;6.804;2023-09-19T07:37:58;14.25;;;2.38;;
61903;SDS011;47857;52.270;6.804;2023-09-19T07:40:26;12.20;;;2.90;;
61903;SDS011;47857;52.270;6.804;2023-09-19T07:42:56;14.43;;;2.70;;
61903;SDS011;47857;52.270;6.804;2023-09-19T07:45:22;12.50;;;2.55;;
61903;SDS011;47857;52.270;6.804;2023-09-19T07:47:48;12.77;;;2.80;;
61903;SDS011;47857;52.270;6.804;2023-09-19T07:50:19;13.90;;;2.60;;
61903;SDS011;47857;52.270;6.804;2023-09-19T07:52:45;13.50;;;2.38;;
61903;SDS011;47857;52.270;6.804;2023-09-19T07:55:11;12.45;;;2.92;;
61903;SDS011;47857;52.270;6.804;2023-09-19T07:57:42;10.93;;;2.50;;
61903;SDS011;47857;52.270;6.804;2023-09-19T08:00:09;13.48;;;2.53;;
61903;SDS011;47857;52.270;6.804;2023-09-19T08:02:41;15.57;;;2.58;;
61903;SDS011;47857;52.270;6.804;2023-09-19T08:05:08;11.98;;;2.78;;
61903;SDS011;47857;52.270;6.804;2023-09-19T08:07:41;9.25;;;2.35;;
61903;SDS011;47857;52.270;6.804;2023-09-19T08:10:07;18.25;;;2.45;;
61903;SDS011;47857;52.270;6.804;2023-09-19T08:12:38;11.70;;;2.30;;
61903;SDS011;47857;52.270;6.804;2023-09-19T08:17:44;11.75;;;2.58;;
61903;SDS011;47857;52.270;6.804;2023-09-19T08:20:10;16.60;;;3.20;;
61903;SDS011;47857;52.270;6.804;2023-09-19T08:22:42;15.30;;;2.65;;
61903;SDS011;47857;52.270;6.804;2023-09-19T08:25:09;14.25;;;2.78;;
61903;SDS011;47857;52.270;6.804;2023-09-19T08:27:35;12.07;;;2.40;;
61903;SDS011;47857;52.270;6.804;2023-09-19T08:30:01;13.25;;;2.78;;
61903;SDS011;47857;52.270;6.804;2023-09-19T08:32:28;13.63;;;2.47;;
61903;SDS011;47857;52.270;6.804;2023-09-19T08:34:54;15.43;;;2.58;;
61903;SDS011;47857;52.270;6.804;2023-09-19T08:37:19;13.48;;;2.47;;
61903;SDS011;47857;52.270;6.804;2023-09-19T08:39:45;8.73;;;2.45;;
61903;SDS011;47857;52.270;6.804;2023-09-19T08:42:11;13.73;;;2.80;;
61903;SDS011;47857;52.270;6.804;2023-09-19T08:44:38;12.63;;;2.70;;
61903;SDS011;47857;52.270;6.804;2023-09-19T08:47:09;12.57;;;2.65;;
61903;SDS011;47857;52.270;6.804;2023-09-19T08:52:42;15.23;;;2.30;;
61903;SDS011;47857;52.270;6.804;2023-09-19T08:55:10;11.55;;;2.33;;
61903;SDS011;47857;52.270;6.804;2023-09-19T08:57:38;11.38;;;2.30;;
61903;SDS011;47857;52.270;6.804;2023-09-19T09:00:07;13.57;;;2.42;;
61903;SDS011;47857;52.270;6.804;2023-09-19T09:02:37;12.35;;;2.45;;
61903;SDS011;47857;52.270;6.804;2023-09-19T09:05:07;10.70;;;2.45;;
61903;SDS011;47857;52.270;6.804;2023-09-19T09:07:35;10.48;;;2.30;;
61903;SDS011;47857;52.270;6.804;2023-09-19T09:10:02;14.90;;;2.45;;
61903;SDS011;47857;52.270;6.804;2023-09-19T09:12:28;16.92;;;2.72;;
61903;SDS011;47857;52.270;6.804;2023-09-19T09:14:54;19.45;;;3.10;;
61903;SDS011;47857;52.270;6.804;2023-09-19T09:17:22;11.18;;;2.53;;
61903;SDS011;47857;52.270;6.804;2023-09-19T09:19:52;15.00;;;3.00;;
61903;SDS011;47857;52.270;6.804;2023-09-19T09:22:18;11.82;;;2.70;;
61903;SDS011;47857;52.270;6.804;2023-09-19T09:24:53;12.75;;;2.90;;
61903;SDS011;47857;52.270;6.804;2023-09-19T09:27:19;13.77;;;3.08;;
61903;SDS011;47857;52.270;6.804;2023-09-19T09:29:46;15.95;;;2.50;;
61903;SDS011;47857;52.270;6.804;2023-09-19T09:34:57;10.82;;;2.53;;
61903;SDS011;47857;52.270;6.804;2023-09-19T09:37:24;12.48;;;3.08;;
61903;SDS011;47857;52.270;6.804;2023-09-19T09:39:52;15.65;;;2.75;;
61903;SDS011;47857;52.270;6.804;2023-09-19T09:42:29;14.95;;;2.72;;
61903;SDS011;47857;52.270;6.804;2023-09-19T09:47:57;13.10;;;2.90;;
61903;SDS011;47857;52.270;6.804;2023-09-19T09:50:29;15.48;;;2.70;;
61903;SDS011;47857;52.270;6.804;2023-09-19T09:58:27;15.05;;;2.95;;
61903;SDS011;47857;52.270;6.804;2023-09-19T10:00:58;13.25;;;2.50;;
61903;SDS011;47857;52.270;6.804;2023-09-19T10:03:37;10.02;;;2.30;;
61903;SDS011;47857;52.270;6.804;2023-09-19T10:06:17;15.70;;;3.00;;
61903;SDS011;47857;52.270;6.804;2023-09-19T10:11:26;13.80;;;2.35;;
61903;SDS011;47857;52.270;6.804;2023-09-19T10:13:56;10.32;;;2.35;;
61903;SDS011;47857;52.270;6.804;2023-09-19T10:16:22;14.57;;;2.70;;
61903;SDS011;47857;52.270;6.804;2023-09-19T10:18:50;14.73;;;4.60;;
61903;SDS011;47857;52.270;6.804;2023-09-19T10:21:19;13.00;;;4.45;;
61903;SDS011;47857;52.270;6.804;2023-09-19T10:23:48;14.30;;;3.60;;
61903;SDS011;47857;52.270;6.804;2023-09-19T10:26:17;17.10;;;5.05;;
61903;SDS011;47857;52.270;6.804;2023-09-19T10:28:43;13.93;;;2.92;;
61903;SDS011;47857;52.270;6.804;2023-09-19T10:31:09;11.52;;;2.53;;
61903;SDS011;47857;52.270;6.804;2023-09-19T10:33:39;14.32;;;2.75;;
61903;SDS011;47857;52.270;6.804;2023-09-19T10:36:06;10.98;;;2.58;;
61903;SDS011;47857;52.270;6.804;2023-09-19T10:38:33;9.35;;;2.50;;
61903;SDS011;47857;52.270;6.804;2023-09-19T10:41:00;12.38;;;2.50;;
61903;SDS011;47857;52.270;6.804;2023-09-19T10:43:31;10.77;;;2.58;;
61903;SDS011;47857;52.270;6.804;2023-09-19T10:46:01;11.52;;;2.13;;
61903;SDS011;47857;52.270;6.804;2023-09-19T10:48:30;9.15;;;2.33;;
61903;SDS011;47857;52.270;6.804;2023-09-19T10:53:55;7.10;;;1.85;;
61903;SDS011;47857;52.270;6.804;2023-09-19T10:56:36;13.25;;;1.90;;
61903;SDS011;47857;52.270;6.804;2023-09-19T10:59:06;7.75;;;1.90;;
61903;SDS011;47857;52.270;6.804;2023-09-19T11:07:06;11.73;;;1.98;;
61903;SDS011;47857;52.270;6.804;2023-09-19T11:09:45;9.18;;;2.35;;
61903;SDS011;47857;52.270;6.804;2023-09-19T11:15:01;8.38;;;2.40;;
61903;SDS011;47857;52.270;6.804;2023-09-19T11:28:28;8.90;;;2.33;;
61903;SDS011;47857;52.270;6.804;2023-09-19T11:30:48;8.93;;;2.20;;
61903;SDS011;47857;52.270;6.804;2023-09-19T11:43:47;10.52;;;2.58;;
61903;SDS011;47857;52.270;6.804;2023-09-19T11:46:24;17.10;;;2.92;;
61903;SDS011;47857;52.270;6.804;2023-09-19T11:48:50;11.18;;;2.40;;
61903;SDS011;47857;52.270;6.804;2023-09-19T11:51:17;12.82;;;2.83;;
61903;SDS011;47857;52.270;6.804;2023-09-19T11:53:53;10.65;;;2.45;;
61903;SDS011;47857;52.270;6.804;2023-09-19T11:56:22;12.10;;;2.78;;
61903;SDS011;47857;52.270;6.804;2023-09-19T11:58:51;10.23;;;2.20;;
61903;SDS011;47857;52.270;6.804;2023-09-19T12:01:25;9.60;;;2.30;;
61903;SDS011;47857;52.270;6.804;2023-09-19T12:03:55;12.88;;;3.03;;
61903;SDS011;47857;52.270;6.804;2023-09-19T12:06:23;12.02;;;3.50;;
61903;SDS011;47857;52.270;6.804;2023-09-19T12:08:49;14.40;;;3.90;;
61903;SDS011;47857;52.270;6.804;2023-09-19T12:11:16;15.65;;;4.13;;
61903;SDS011;47857;52.270;6.804;2023-09-19T12:13:45;12.57;;;2.90;;
61903;SDS011;47857;52.270;6.804;2023-09-19T12:16:16;11.18;;;2.33;;
61903;SDS011;47857;52.270;6.804;2023-09-19T12:18:44;10.25;;;2.42;;
61903;SDS011;47857;52.270;6.804;2023-09-19T12:21:21;8.68;;;2.00;;
61903;SDS011;47857;52.270;6.804;2023-09-19T12:26:41;10.23;;;2.45;;
61903;SDS011;47857;52.270;6.804;2023-09-19T12:29:14;10.25;;;2.25;;
61903;SDS011;47857;52.270;6.804;2023-09-19T12:31:53;9.68;;;2.30;;
61903;SDS011;47857;52.270;6.804;2023-09-19T12:34:31;10.88;;;2.58;;
61903;SDS011;47857;52.270;6.804;2023-09-19T12:39:40;10.80;;;1.95;;
61903;SDS011;47857;52.270;6.804;2023-09-19T12:42:21;7.70;;;1.90;;
61903;SDS011;47857;52.270;6.804;2023-09-19T12:47:22;13.90;;;2.20;;
61903;SDS011;47857;52.270;6.804;2023-09-19T12:52:41;8.95;;;1.90;;
61903;SDS011;47857;52.270;6.804;2023-09-19T12:55:16;9.90;;;1.90;;
61903;SDS011;47857;52.270;6.804;2023-09-19T12:57:54;11.70;;;2.10;;
61903;SDS011;47857;52.270;6.804;2023-09-19T13:00:33;11.45;;;2.10;;
61903;SDS011;47857;52.270;6.804;2023-09-19T13:06:00;12.13;;;2.58;;
61903;SDS011;47857;52.270;6.804;2023-09-19T13:08:32;10.70;;;2.42;;
61903;SDS011;47857;52.270;6.804;2023-09-19T13:11:02;12.02;;;2.10;;
61903;SDS011;47857;52.270;6.804;2023-09-19T13:13:35;9.23;;;1.90;;
61903;SDS011;47857;52.270;6.804;2023-09-19T13:16:02;10.80;;;2.10;;
61903;SDS011;47857;52.270;6.804;2023-09-19T13:18:30;12.23;;;2.15;;
61903;SDS011;47857;52.270;6.804;2023-09-19T13:21:10;12.20;;;2.38;;
61903;SDS011;47857;52.270;6.804;2023-09-19T13:23:48;13.20;;;2.50;;
61903;SDS011;47857;52.270;6.804;2023-09-19T13:26:15;8.98;;;2.17;;
61903;SDS011;47857;52.270;6.804;2023-09-19T13:28:40;8.70;;;1.88;;
61903;SDS011;47857;52.270;6.804;2023-09-19T13:31:06;11.57;;;2.38;;
61903;SDS011;47857;52.270;6.804;2023-09-19T13:33:33;9.15;;;1.98;;
61903;SDS011;47857;52.270;6.804;2023-09-19T13:35:59;7.40;;;2.17;;
61903;SDS011;47857;52.270;6.804;2023-09-19T13:38:24;10.23;;;1.90;;
61903;SDS011;47857;52.270;6.804;2023-09-19T13:40:50;8.40;;;2.03;;
61903;SDS011;47857;52.270;6.804;2023-09-19T13:43:17;10.60;;;2.10;;
61903;SDS011;47857;52.270;6.804;2023-09-19T13:45:43;7.50;;;2.00;;
61903;SDS011;47857;52.270;6.804;2023-09-19T13:48:08;8.05;;;1.73;;
61903;SDS011;47857;52.270;6.804;2023-09-19T13:50:36;9.80;;;1.52;;
61903;SDS011;47857;52.270;6.804;2023-09-19T13:53:10;9.65;;;1.90;;
61903;SDS011;47857;52.270;6.804;2023-09-19T13:55:36;8.85;;;1.70;;
61903;SDS011;47857;52.270;6.804;2023-09-19T13:58:03;9.23;;;2.28;;
61903;SDS011;47857;52.270;6.804;2023-09-19T14:00:31;8.77;;;1.63;;
61903;SDS011;47857;52.270;6.804;2023-09-19T14:03:02;5.97;;;1.63;;
61903;SDS011;47857;52.270;6.804;2023-09-19T14:05:29;9.00;;;1.80;;
61903;SDS011;47857;52.270;6.804;2023-09-19T14:07:55;9.27;;;1.85;;
61903;SDS011;47857;52.270;6.804;2023-09-19T14:10:21;6.22;;;1.20;;
61903;SDS011;47857;52.270;6.804;2023-09-19T14:12:47;5.50;;;1.70;;
61903;SDS011;47857;52.270;6.804;2023-09-19T14:15:13;6.00;;;1.67;;
61903;SDS011;47857;52.270;6.804;2023-09-19T14:17:39;8.00;;;1.70;;
61903;SDS011;47857;52.270;6.804;2023-09-19T14:20:07;6.97;;;1.60;;
61903;SDS011;47857;52.270;6.804;2023-09-19T14:22:35;7.75;;;1.35;;
61903;SDS011;47857;52.270;6.804;2023-09-19T14:25:02;6.95;;;1.50;;
61903;SDS011;47857;52.270;6.804;2023-09-19T14:27:29;7.35;;;1.33;;
61903;SDS011;47857;52.270;6.804;2023-09-19T14:29:54;7.20;;;1.60;;
61903;SDS011;47857;52.270;6.804;2023-09-19T14:32:22;10.00;;;1.52;;
61903;SDS011;47857;52.270;6.804;2023-09-19T14:34:48;8.48;;;1.70;;
61903;SDS011;47857;52.270;6.804;2023-09-19T14:37:14;6.20;;;1.38;;
61903;SDS011;47857;52.270;6.804;2023-09-19T14:39:41;4.05;;;1.00;;
61903;SDS011;47857;52.270;6.804;2023-09-19T14:42:10;4.57;;;1.30;;
61903;SDS011;47857;52.270;6.804;2023-09-19T14:44:36;6.50;;;1.40;;
61903;SDS011;47857;52.270;6.804;2023-09-19T14:47:02;7.63;;;1.40;;
61903;SDS011;47857;52.270;6.804;2023-09-19T14:49:33;3.90;;;1.23;;
61903;SDS011;47857;52.270;6.804;2023-09-19T14:51:59;3.40;;;1.10;;
61903;SDS011;47857;52.270;6.804;2023-09-19T14:54:24;6.05;;;1.17;;
61903;SDS011;47857;52.270;6.804;2023-09-19T14:56:50;5.60;;;1.35;;
61903;SDS011;47857;52.270;6.804;2023-09-19T14:59:29;4.22;;;1.00;;
61903;SDS011;47857;52.270;6.804;2023-09-19T15:01:55;4.78;;;1.00;;
61903;SDS011;47857;52.270;6.804;2023-09-19T15:04:21;6.53;;;1.10;;
61903;SDS011;47857;52.270;6.804;2023-09-19T15:06:46;4.93;;;1.40;;
61903;SDS011;47857;52.270;6.804;2023-09-19T15:09:13;6.20;;;1.25;;
61903;SDS011;47857;52.270;6.804;2023-09-19T15:11:39;3.38;;;1.05;;
61903;SDS011;47857;52.270;6.804;2023-09-19T15:14:04;6.32;;;1.10;;
61903;SDS011;47857;52.270;6.804;2023-09-19T15:16:30;7.75;;;1.40;;
61903;SDS011;47857;52.270;6.804;2023-09-19T15:18:56;6.70;;;1.00;;
61903;SDS011;47857;52.270;6.804;2023-09-19T15:21:22;4.57;;;0.95;;
61903;SDS011;47857;52.270;6.804;2023-09-19T15:23:48;3.95;;;0.98;;
61903;SDS011;47857;52.270;6.804;2023-09-19T15:26:14;3.28;;;1.20;;
61903;SDS011;47857;52.270;6.804;2023-09-19T15:28:45;4.32;;;1.30;;
61903;SDS011;47857;52.270;6.804;2023-09-19T15:31:11;6.25;;;1.40;;
61903;SDS011;47857;52.270;6.804;2023-09-19T15:33:38;4.65;;;1.60;;
61903;SDS011;47857;52.270;6.804;2023-09-19T15:36:07;8.30;;;1.73;;
61903;SDS011;47857;52.270;6.804;2023-09-19T15:41:36;12.88;;;2.13;;
61903;SDS011;47857;52.270;6.804;2023-09-19T15:44:03;7.10;;;1.73;;
61903;SDS011;47857;52.270;6.804;2023-09-19T15:46:29;10.23;;;2.75;;
61903;SDS011;47857;52.270;6.804;2023-09-19T15:48:57;10.32;;;2.35;;
61903;SDS011;47857;52.270;6.804;2023-09-19T15:51:23;10.68;;;2.25;;
61903;SDS011;47857;52.270;6.804;2023-09-19T15:53:50;7.78;;;2.53;;
61903;SDS011;47857;52.270;6.804;2023-09-19T15:56:17;9.07;;;1.80;;
61903;SDS011;47857;52.270;6.804;2023-09-19T15:58:45;5.78;;;2.33;;
61903;SDS011;47857;52.270;6.804;2023-09-19T16:01:11;5.72;;;1.55;;
61903;SDS011;47857;52.270;6.804;2023-09-19T16:03:38;7.05;;;2.20;;
61903;SDS011;47857;52.270;6.804;2023-09-19T16:06:08;9.15;;;2.67;;
61903;SDS011;47857;52.270;6.804;2023-09-19T16:08:35;9.98;;;1.33;;
61903;SDS011;47857;52.270;6.804;2023-09-19T16:11:01;5.57;;;1.70;;
61903;SDS011;47857;52.270;6.804;2023-09-19T16:13:28;6.47;;;1.60;;
61903;SDS011;47857;52.270;6.804;2023-09-19T16:15:53;4.47;;;1.23;;
61903;SDS011;47857;52.270;6.804;2023-09-19T16:18:19;5.75;;;1.30;;
61903;SDS011;47857;52.270;6.804;2023-09-19T16:20:45;4.57;;;1.30;;